Time;durP1;ratioP1;P1;durP2;ratioP2;P2;SDS_P1;SDS_P2;PMS_P1;PMS_P2;Temp;Humidity;BMP_temperature;BMP_pressure;BME280_temperature;BME280_humidity;BME280_pressure;Samples;Min_cycle;Max_cycle;Signal;HPM_P1;HPM_P2
2023/09/29 04:05:56;;;;;;;0.30;0.30;;;13.50;99.90;;;;;;5600125;22;20837;-60
2023/09/29 04:08:22;;;;;;;0.40;0.40;;;13.50;99.90;;;;;;5093346;28;20397;-60
2023/09/29 04:10:47;;;;;;;0.30;0.20;;;13.50;99.90;;;;;;5093609;28;20649;-59
2023/09/29 04:13:13;;;;;;;7.63;1.23;;;13.50;99.90;;;;;;5078179;28;20186;-60
2023/09/29 04:15:38;;;;;;;0.30;0.30;;;13.50;99.90;;;;;;5072658;28;20184;-59
2023/09/29 04:18:04;;;;;;;0.30;0.30;;;13.50;99.90;;;;;;5073056;28;20211;-59
2023/09/29 04:20:31;;;;;;;0.30;0.20;;;13.40;99.90;;;;;;5073084;28;20221;-59
2023/09/29 04:22:57;;;;;;;0.30;0.20;;;13.40;99.90;;;;;;5084668;28;20568;-59
2023/09/29 04:25:22;;;;;;;0.50;0.50;;;13.40;99.90;;;;;;5092942;28;20380;-59
2023/09/29 04:27:49;;;;;;;0.40;0.40;;;13.40;99.90;;;;;;5093165;28;20528;-59
2023/09/29 04:30:14;;;;;;;0.40;0.40;;;13.40;99.90;;;;;;5093371;28;20175;-60
2023/09/29 04:32:40;;;;;;;0.33;0.33;;;13.40;99.90;;;;;;5083493;28;20422;-60
2023/09/29 04:35:06;;;;;;;0.30;0.30;;;13.40;99.90;;;;;;5071808;28;20699;-59
2023/09/29 04:37:32;;;;;;;0.40;0.40;;;13.40;99.90;;;;;;5072269;28;20461;-60
2023/09/29 04:39:57;;;;;;;0.30;0.30;;;13.40;99.90;;;;;;5073138;28;20405;-59
2023/09/29 04:42:24;;;;;;;0.40;0.40;;;13.50;99.90;;;;;;5079211;28;20202;-59
2023/09/29 04:44:49;;;;;;;0.30;0.30;;;13.50;99.90;;;;;;5092756;28;20175;-59
2023/09/29 04:47:15;;;;;;;0.30;0.30;;;13.60;99.90;;;;;;5094822;28;20476;-60
2023/09/29 04:49:41;;;;;;;0.33;0.33;;;13.60;99.90;;;;;;5096723;28;20197;-60
2023/09/29 04:52:07;;;;;;;0.30;0.30;;;13.70;99.90;;;;;;5092843;28;20778;-59
2023/09/29 04:54:33;;;;;;;0.43;0.40;;;13.70;99.90;;;;;;5076394;28;20396;-59
2023/09/29 04:56:59;;;;;;;0.30;0.30;;;13.70;99.90;;;;;;5077590;28;20206;-60
2023/09/29 04:59:25;;;;;;;0.30;0.30;;;13.70;99.90;;;;;;5076587;28;20180;-60
2023/09/29 05:01:51;;;;;;;0.30;0.20;;;13.80;99.90;;;;;;5076477;28;20449;-59
2023/09/29 05:04:16;;;;;;;0.30;0.30;;;13.80;99.90;;;;;;5076169;28;20172;-60
2023/09/29 05:06:43;;;;;;;0.40;0.40;;;13.90;99.90;;;;;;5085257;28;20202;-60
2023/09/29 05:09:11;;;;;;;0.30;0.30;;;13.90;99.90;;;;;;5082799;28;20195;-61
2023/09/29 05:11:37;;;;;;;0.80;0.80;;;14.00;99.90;;;;;;5076327;28;20483;-60
2023/09/29 05:14:03;;;;;;;0.40;0.40;;;14.00;99.90;;;;;;5076029;28;20456;-60
2023/09/29 05:16:28;;;;;;;0.30;0.30;;;14.00;99.90;;;;;;5082966;28;20531;-60
2023/09/29 05:18:54;;;;;;;0.40;0.40;;;14.10;99.90;;;;;;5096698;28;20406;-60
2023/09/29 05:21:20;;;;;;;1.17;1.17;;;14.00;99.90;;;;;;5096528;28;20178;-60
2023/09/29 05:23:46;;;;;;;0.30;0.30;;;14.10;99.90;;;;;;5095818;28;20199;-60
2023/09/29 05:26:12;;;;;;;0.40;0.33;;;14.10;99.90;;;;;;5090994;28;20784;-60
2023/09/29 05:28:38;;;;;;;0.30;0.20;;;14.00;99.90;;;;;;5076025;28;20425;-64
2023/09/29 05:31:04;;;;;;;0.60;0.60;;;14.00;99.90;;;;;;5075520;28;20179;-60
2023/09/29 05:33:30;;;;;;;0.30;0.30;;;13.90;99.90;;;;;;5058247;28;20402;-59
2023/09/29 05:35:57;;;;;;;0.30;0.20;;;13.90;99.90;;;;;;5077112;28;20433;-59
2023/09/29 05:38:23;;;;;;;0.30;0.30;;;13.90;99.90;;;;;;5095723;28;20410;-60
2023/09/29 05:40:50;;;;;;;0.30;0.20;;;14.00;99.90;;;;;;5095942;28;20463;-61
2023/09/29 05:43:16;;;;;;;0.30;0.30;;;14.00;99.90;;;;;;5095871;28;20462;-61
2023/09/29 05:45:42;;;;;;;0.30;0.30;;;14.10;99.90;;;;;;5094885;28;20450;-60
2023/09/29 05:48:08;;;;;;;0.30;0.30;;;14.10;99.90;;;;;;5075486;28;20211;-61
2023/09/29 05:50:34;;;;;;;0.30;0.20;;;14.20;99.90;;;;;;5075699;28;20438;-61
2023/09/29 05:52:59;;;;;;;0.30;0.30;;;14.30;99.90;;;;;;5075659;28;20533;-62
2023/09/29 05:55:26;;;;;;;0.30;0.20;;;14.40;99.90;;;;;;5074998;28;20389;-62
2023/09/29 05:57:52;;;;;;;0.30;0.30;;;14.50;99.90;;;;;;5091995;28;20176;-63
2023/09/29 06:00:18;;;;;;;0.30;0.30;;;14.60;99.90;;;;;;5095040;28;20422;-63
2023/09/29 06:02:46;;;;;;;0.40;0.40;;;14.60;99.90;;;;;;5095329;28;20454;-63
2023/09/29 06:05:12;;;;;;;0.30;0.30;;;14.80;99.90;;;;;;5095443;28;20410;-63
2023/09/29 06:07:37;;;;;;;0.37;0.37;;;14.80;99.90;;;;;;5079549;28;20782;-63
2023/09/29 06:10:05;;;;;;;0.70;0.70;;;15.00;99.90;;;;;;5075235;28;20923;-63
2023/09/29 06:12:30;;;;;;;0.30;0.20;;;15.10;99.90;;;;;;5075260;28;20176;-63
2023/09/29 06:14:56;;;;;;;0.60;0.50;;;15.30;99.90;;;;;;5074735;28;20393;-63
2023/09/29 06:17:22;;;;;;;0.30;0.27;;;15.50;99.90;;;;;;5086538;28;20227;-64
2023/09/29 06:19:48;;;;;;;0.47;0.47;;;15.70;99.90;;;;;;5095397;28;20424;-63
2023/09/29 06:22:14;;;;;;;0.67;0.67;;;15.90;99.90;;;;;;5076993;28;20268;-63
2023/09/29 06:24:41;;;;;;;0.30;0.30;;;15.90;99.90;;;;;;5094799;28;20418;-63
2023/09/29 06:27:07;;;;;;;0.30;0.20;;;15.90;99.90;;;;;;5085974;28;20275;-63
2023/09/29 06:29:33;;;;;;;0.30;0.20;;;15.90;99.90;;;;;;5074500;28;20458;-63
2023/09/29 06:31:58;;;;;;;0.30;0.30;;;16.00;99.90;;;;;;5074682;28;20178;-62
2023/09/29 06:34:24;;;;;;;0.60;0.60;;;16.10;99.90;;;;;;5074562;28;20260;-63
2023/09/29 06:36:49;;;;;;;0.50;0.50;;;16.30;99.90;;;;;;5077457;28;20211;-63
2023/09/29 06:39:15;;;;;;;0.30;0.30;;;16.40;99.90;;;;;;5056541;28;20169;-63
2023/09/29 06:41:41;;;;;;;0.30;0.20;;;16.60;99.90;;;;;;5087515;28;20634;-63
2023/09/29 06:44:06;;;;;;;0.47;0.47;;;16.70;99.90;;;;;;5094546;28;20173;-63
2023/09/29 06:46:32;;;;;;;0.40;0.40;;;16.90;99.90;;;;;;5094801;28;20259;-62
2023/09/29 06:48:58;;;;;;;0.30;0.30;;;17.00;99.90;;;;;;5094805;28;20172;-62
2023/09/29 06:51:24;;;;;;;0.30;0.30;;;17.20;99.90;;;;;;5085519;28;20242;-61
2023/09/29 06:53:50;;;;;;;0.30;0.30;;;17.30;99.90;;;;;;5073959;28;20385;-60
2023/09/29 06:56:15;;;;;;;1.20;0.87;;;17.40;99.90;;;;;;5074034;28;20193;-61
2023/09/29 06:58:41;;;;;;;0.30;0.20;;;17.50;99.90;;;;;;5074435;28;20176;-62
2023/09/29 07:01:07;;;;;;;0.63;0.63;;;17.60;99.90;;;;;;5080263;28;20575;-61
2023/09/29 07:03:33;;;;;;;0.50;0.50;;;17.70;99.90;;;;;;5094302;28;20207;-61
2023/09/29 07:06:01;;;;;;;0.50;0.50;;;17.80;99.90;;;;;;5092888;28;20507;-61
2023/09/29 07:08:27;;;;;;;0.30;0.20;;;17.90;99.90;;;;;;5077756;28;20498;-61
2023/09/29 07:10:53;;;;;;;0.30;0.20;;;17.90;99.90;;;;;;5093708;28;20830;-61
2023/09/29 07:13:19;;;;;;;1.07;1.07;;;18.00;99.90;;;;;;5094236;28;20448;-61
2023/09/29 07:15:45;;;;;;;0.30;0.20;;;18.10;99.90;;;;;;5094010;28;20422;-61
2023/09/29 07:18:12;;;;;;;0.30;0.20;;;18.10;99.90;;;;;;5073650;28;20176;-61
2023/09/29 07:20:39;;;;;;;0.30;0.30;;;18.20;99.90;;;;;;5073759;28;20447;-61
2023/09/29 07:23:05;;;;;;;0.30;0.20;;;18.40;99.90;;;;;;5073821;28;20453;-61
2023/09/29 07:25:30;;;;;;;0.30;0.30;;;18.40;99.90;;;;;;5055433;28;20425;-61
2023/09/29 07:27:56;;;;;;;0.30;0.27;;;18.60;99.90;;;;;;5073742;28;20399;-61
2023/09/29 07:30:22;;;;;;;0.30;0.30;;;18.70;99.90;;;;;;5092598;28;20232;-61
2023/09/29 07:32:47;;;;;;;0.30;0.30;;;18.90;99.90;;;;;;5093901;28;20179;-61
2023/09/29 07:35:13;;;;;;;0.30;0.30;;;19.10;99.90;;;;;;5093741;28;20630;-61
2023/09/29 07:37:39;;;;;;;0.30;0.30;;;19.30;99.90;;;;;;5093957;28;20196;-61
2023/09/29 07:40:07;;;;;;;0.83;0.70;;;19.50;99.90;;;;;;5077104;28;20239;-61
2023/09/29 07:42:33;;;;;;;0.50;0.40;;;19.90;99.90;;;;;;5073651;28;20192;-61
2023/09/29 07:44:59;;;;;;;0.30;0.30;;;20.10;99.90;;;;;;5073193;28;20396;-61
2023/09/29 07:47:24;;;;;;;0.30;0.20;;;20.30;99.90;;;;;;5073483;28;20476;-62
2023/09/29 07:49:50;;;;;;;0.30;0.30;;;20.50;99.90;;;;;;5087499;28;20245;-63
2023/09/29 07:52:15;;;;;;;0.63;0.63;;;20.70;99.90;;;;;;5093775;28;20181;-61
2023/09/29 07:54:41;;;;;;;0.70;0.70;;;20.80;99.90;;;;;;5093353;28;20182;-61
2023/09/29 07:57:07;;;;;;;0.37;0.37;;;20.90;99.90;;;;;;5093657;28;20197;-61
2023/09/29 07:59:32;;;;;;;0.40;0.30;;;21.00;99.90;;;;;;5074908;28;20203;-61
2023/09/29 08:01:59;;;;;;;0.50;0.47;;;21.10;99.90;;;;;;5093884;28;20196;-61
2023/09/29 08:04:25;;;;;;;0.30;0.20;;;21.20;99.90;;;;;;5093900;28;20178;-61
2023/09/29 08:06:51;;;;;;;0.30;0.30;;;21.40;99.90;;;;;;5075929;28;20432;-62
2023/09/29 08:09:17;;;;;;;0.33;0.30;;;21.60;99.90;;;;;;5085701;28;20444;-61
2023/09/29 08:11:43;;;;;;;0.30;0.30;;;21.80;99.90;;;;;;5073321;28;20179;-61
2023/09/29 08:14:09;;;;;;;0.30;0.20;;;22.10;99.90;;;;;;5072983;28;20168;-61
2023/09/29 08:16:35;;;;;;;0.40;0.30;;;22.30;99.90;;;;;;5086375;28;20415;-61
2023/09/29 08:19:01;;;;;;;0.40;0.40;;;22.50;99.70;;;;;;5093330;28;20993;-64
2023/09/29 08:21:27;;;;;;;0.30;0.30;;;22.90;99.30;;;;;;5095887;28;20749;-63
2023/09/29 08:23:52;;;;;;;0.30;0.30;;;23.40;99.00;;;;;;5097175;28;20439;-64
2023/09/29 08:26:18;;;;;;;0.30;0.20;;;23.90;97.80;;;;;;5088982;28;20192;-64
2023/09/29 08:28:44;;;;;;;0.30;0.30;;;24.80;96.90;;;;;;5077151;28;20270;-65
2023/09/29 08:31:15;;;;;;;0.30;0.23;;;25.90;95.20;;;;;;5077247;28;20248;-65
2023/09/29 08:33:41;;;;;;;0.50;0.40;;;27.00;93.60;;;;;;5077175;28;20284;-64
2023/09/29 08:36:07;;;;;;;0.30;0.20;;;28.20;92.20;;;;;;5081566;28;20426;-64
2023/09/29 08:38:33;;;;;;;0.30;0.30;;;29.30;89.10;;;;;;5097368;28;20509;-64
2023/09/29 08:41:04;;;;;;;1.60;0.50;;;30.30;85.20;;;;;;5097145;28;20214;-64
2023/09/29 08:43:31;;;;;;;0.43;0.43;;;31.10;82.20;;;;;;5062323;28;20208;-65
2023/09/29 08:46:00;;;;;;;0.40;0.40;;;31.40;80.10;;;;;;5093050;28;20944;-64
2023/09/29 08:48:28;;;;;;;0.50;0.50;;;31.60;78.80;;;;;;5076731;28;20515;-65
2023/09/29 08:50:57;;;;;;;0.30;0.30;;;31.90;77.40;;;;;;5076864;28;20419;-65
2023/09/29 08:53:26;;;;;;;0.50;0.50;;;32.30;76.90;;;;;;5076621;28;20414;-65
2023/09/29 08:55:54;;;;;;;0.77;0.77;;;33.00;74.80;;;;;;5088822;28;20443;-65
2023/09/29 08:58:21;;;;;;;0.50;0.50;;;33.80;72.60;;;;;;5076680;28;20426;-65
2023/09/29 09:00:48;;;;;;;0.30;0.30;;;34.10;70.50;;;;;;5076697;28;20422;-65
2023/09/29 09:03:14;;;;;;;0.40;0.30;;;34.30;68.50;;;;;;5076348;28;20461;-65
2023/09/29 09:05:40;;;;;;;0.40;0.40;;;34.60;68.00;;;;;;5076133;28;20407;-65
2023/09/29 09:08:06;;;;;;;0.33;0.33;;;34.50;67.40;;;;;;5096914;28;20422;-64
2023/09/29 09:10:34;;;;;;;0.70;0.70;;;34.20;67.30;;;;;;5096508;28;20176;-65
2023/09/29 09:13:00;;;;;;;0.77;0.77;;;34.20;66.40;;;;;;5096775;28;20410;-64
2023/09/29 09:15:26;;;;;;;0.40;0.40;;;34.30;66.50;;;;;;5096255;28;20466;-65
2023/09/29 09:17:52;;;;;;;0.47;0.47;;;34.60;65.10;;;;;;5077658;28;20980;-64
2023/09/29 09:20:18;;;;;;;0.60;0.60;;;35.10;64.10;;;;;;5075797;28;20473;-64
2023/09/29 09:22:54;;;;;;;0.50;0.50;;;35.60;64.60;;;;;;5076344;28;20811;-65
2023/09/29 09:25:37;;;;;;;3.03;0.70;;;35.80;62.70;;;;;;5075830;28;20410;-65
2023/09/29 09:28:03;;;;;;;1.00;1.00;;;36.20;60.90;;;;;;5095905;28;20418;-65
2023/09/29 09:30:35;;;;;;;0.77;0.50;;;36.50;60.20;;;;;;5096378;28;20406;-65
2023/09/29 09:33:02;;;;;;;0.50;0.50;;;36.80;59.80;;;;;;5094972;28;20501;-63
2023/09/29 09:35:29;;;;;;;0.63;0.60;;;36.70;59.10;;;;;;5095746;28;20410;-62
2023/09/29 09:37:55;;;;;;;0.47;0.47;;;36.40;59.20;;;;;;5077104;28;20576;-63
2023/09/29 09:40:26;;;;;;;0.40;0.40;;;36.20;59.80;;;;;;5075681;28;20411;-63
2023/09/29 09:42:58;;;;;;;0.60;0.50;;;36.40;60.50;;;;;;5091676;28;20457;-62
2023/09/29 09:45:34;;;;;;;0.93;0.80;;;36.50;59.60;;;;;;5075186;28;20444;-65
2023/09/29 09:48:04;;;;;;;0.90;0.63;;;36.80;59.20;;;;;;5075809;28;20444;-64
2023/09/29 09:50:32;;;;;;;0.40;0.40;;;36.70;58.80;;;;;;5075421;28;20416;-63
2023/09/29 09:53:02;;;;;;;0.70;0.70;;;36.60;59.00;;;;;;5078639;28;20421;-65
2023/09/29 09:55:36;;;;;;;0.60;0.57;;;36.30;60.00;;;;;;5094954;28;20485;-65
2023/09/29 09:58:10;;;;;;;0.40;0.40;;;35.50;60.10;;;;;;5095350;28;21282;-62
2023/09/29 10:00:39;;;;;;;0.30;0.30;;;34.90;61.60;;;;;;5095602;28;20759;-64
2023/09/29 10:03:12;;;;;;;0.70;0.70;;;34.10;63.30;;;;;;5091805;28;20455;-65
2023/09/29 10:05:41;;;;;;;0.50;0.50;;;33.50;63.30;;;;;;5075096;28;20399;-64
2023/09/29 10:08:10;;;;;;;0.40;0.37;;;33.00;64.10;;;;;;5075107;28;20449;-64
2023/09/29 10:10:42;;;;;;;0.57;0.57;;;32.40;66.80;;;;;;5075637;28;20904;-64
2023/09/29 10:13:12;;;;;;;0.50;0.50;;;32.00;69.90;;;;;;5078636;28;20426;-64
2023/09/29 10:15:41;;;;;;;0.50;0.50;;;31.90;69.90;;;;;;5076599;28;20911;-64
2023/09/29 10:18:18;;;;;;;0.50;0.40;;;32.00;69.30;;;;;;5095350;28;20484;-62
2023/09/29 10:20:48;;;;;;;0.77;0.77;;;31.90;70.10;;;;;;5095119;28;20414;-64
2023/09/29 10:23:15;;;;;;;0.30;0.30;;;32.10;71.10;;;;;;5090521;28;20906;-64
2023/09/29 10:25:45;;;;;;;0.50;0.50;;;32.10;70.10;;;;;;5074767;28;20758;-64
2023/09/29 10:28:12;;;;;;;0.87;0.87;;;32.30;70.20;;;;;;5075087;28;20495;-64
2023/09/29 10:30:39;;;;;;;0.40;0.40;;;32.40;70.50;;;;;;5074836;28;20394;-65
2023/09/29 10:33:11;;;;;;;0.30;0.30;;;32.60;69.30;;;;;;5077567;28;20394;-64
2023/09/29 10:35:45;;;;;;;0.60;0.60;;;32.70;68.50;;;;;;5094529;28;20463;-65
2023/09/29 10:38:31;;;;;;;0.30;0.30;;;32.60;69.20;;;;;;5094568;28;20397;-64
2023/09/29 10:41:00;;;;;;;0.60;0.33;;;32.50;70.60;;;;;;5094388;28;20944;-62
2023/09/29 10:43:26;;;;;;;0.50;0.40;;;32.60;71.80;;;;;;5088811;28;20444;-64
2023/09/29 10:45:52;;;;;;;0.30;0.30;;;32.80;71.20;;;;;;5080060;28;20804;-63
2023/09/29 10:48:22;;;;;;;0.37;0.37;;;33.10;68.20;;;;;;5094428;28;20393;-64
2023/09/29 10:50:49;;;;;;;0.53;0.53;;;33.40;67.20;;;;;;5094414;28;20180;-64
2023/09/29 10:53:16;;;;;;;0.40;0.40;;;33.70;67.30;;;;;;5094381;28;20420;-64
2023/09/29 10:55:47;;;;;;;0.40;0.40;;;33.90;67.90;;;;;;5089883;28;20475;-62
2023/09/29 10:58:14;;;;;;;0.43;0.43;;;34.20;65.90;;;;;;5074040;28;20419;-61
2023/09/29 11:00:50;;;;;;;0.50;0.50;;;34.40;62.90;;;;;;5056542;28;20959;-61
2023/09/29 11:03:27;;;;;;;0.40;0.40;;;34.40;62.80;;;;;;5058441;28;20493;-63
2023/09/29 11:05:55;;;;;;;0.40;0.30;;;34.30;62.50;;;;;;5060779;28;20838;-62
2023/09/29 11:08:28;;;;;;;0.33;0.33;;;33.90;62.80;;;;;;5093773;28;20454;-71
2023/09/29 11:11:00;;;;;;;2.10;0.50;;;33.50;64.60;;;;;;5093372;28;20407;-62
2023/09/29 11:13:27;;;;;;;0.70;0.60;;;33.00;64.20;;;;;;5084086;28;20409;-69
2023/09/29 11:15:53;;;;;;;1.23;0.40;;;32.40;65.30;;;;;;5078270;28;20458;-61
2023/09/29 11:18:37;;;;;;;0.67;0.67;;;31.80;67.20;;;;;;5094204;28;20429;-62
2023/09/29 11:21:08;;;;;;;0.50;0.50;;;31.30;70.40;;;;;;5072977;28;20909;-60
2023/09/29 11:23:47;;;;;;;0.40;0.40;;;30.90;70.60;;;;;;5093935;28;20893;-61
2023/09/29 11:26:13;;;;;;;0.40;0.40;;;30.60;71.20;;;;;;5085660;28;20439;-60
2023/09/29 11:28:47;;;;;;;0.87;0.40;;;30.40;72.00;;;;;;5075237;28;20756;-62
2023/09/29 11:31:15;;;;;;;0.60;0.50;;;30.00;72.40;;;;;;5073753;28;20470;-61
2023/09/29 11:33:42;;;;;;;0.40;0.40;;;29.70;74.70;;;;;;5075186;28;20500;-61
2023/09/29 11:36:29;;;;;;;0.50;0.50;;;29.40;76.10;;;;;;5078319;28;20412;-61
2023/09/29 11:38:55;;;;;;;0.30;0.30;;;29.30;76.70;;;;;;5085730;28;20410;-61
2023/09/29 11:41:22;;;;;;;0.40;0.40;;;29.20;78.00;;;;;;5077951;28;20763;-62
2023/09/29 11:43:48;;;;;;;0.30;0.30;;;29.00;77.30;;;;;;5082879;28;20424;-64
2023/09/29 11:46:14;;;;;;;0.30;0.30;;;29.00;77.80;;;;;;5086485;28;20464;-60
2023/09/29 11:48:45;;;;;;;0.53;0.53;;;29.00;79.10;;;;;;5087964;28;20417;-63
2023/09/29 11:51:13;;;;;;;1.13;1.03;;;28.90;79.30;;;;;;5085515;28;20434;-63
2023/09/29 11:53:43;;;;;;;0.30;0.30;;;29.00;79.00;;;;;;5075449;28;20438;-63
2023/09/29 11:56:09;;;;;;;0.40;0.40;;;28.90;79.80;;;;;;5076298;28;20451;-62
2023/09/29 11:58:35;;;;;;;0.30;0.30;;;28.90;80.00;;;;;;5093485;28;20494;-63
2023/09/29 12:01:02;;;;;;;0.50;0.50;;;28.90;80.20;;;;;;5092566;28;20412;-62
2023/09/29 12:03:27;;;;;;;0.30;0.30;;;28.90;80.30;;;;;;5093459;28;20816;-60
2023/09/29 12:05:54;;;;;;;0.70;0.70;;;28.90;80.80;;;;;;5091421;28;20432;-62
2023/09/29 12:08:20;;;;;;;0.83;0.57;;;28.90;80.70;;;;;;5073200;28;20208;-62
2023/09/29 12:10:47;;;;;;;0.40;0.40;;;28.90;80.50;;;;;;5073316;28;20411;-61
2023/09/29 12:13:15;;;;;;;0.90;0.83;;;28.90;79.70;;;;;;5073361;28;20426;-61
2023/09/29 12:15:45;;;;;;;0.50;0.30;;;28.80;79.30;;;;;;5079104;28;20438;-61
2023/09/29 12:18:12;;;;;;;0.30;0.30;;;28.60;80.10;;;;;;5093427;28;20437;-61
2023/09/29 12:20:41;;;;;;;0.40;0.40;;;28.50;80.70;;;;;;5087369;28;20419;-60
2023/09/29 12:23:08;;;;;;;0.30;0.30;;;28.50;80.10;;;;;;5055739;28;20450;-61
2023/09/29 12:25:37;;;;;;;0.40;0.40;;;28.60;79.40;;;;;;5072595;28;20480;-61
2023/09/29 12:28:04;;;;;;;0.30;0.27;;;28.60;80.00;;;;;;5073503;28;20403;-60
2023/09/29 12:30:30;;;;;;;0.30;0.30;;;28.60;80.30;;;;;;5073127;28;20404;-61
2023/09/29 12:32:56;;;;;;;0.30;0.20;;;28.70;79.40;;;;;;5093130;28;20454;-61
2023/09/29 12:35:22;;;;;;;0.40;0.40;;;28.70;79.90;;;;;;5092425;28;20445;-61
2023/09/29 12:37:47;;;;;;;0.47;0.47;;;28.70;80.50;;;;;;5093030;28;20377;-61
2023/09/29 12:40:15;;;;;;;0.30;0.30;;;28.80;81.50;;;;;;5093091;28;20633;-61
2023/09/29 12:42:47;;;;;;;0.50;0.50;;;28.90;78.90;;;;;;5074207;28;20219;-61
2023/09/29 12:45:23;;;;;;;0.30;0.30;;;28.90;79.90;;;;;;5072412;28;20488;-61
2023/09/29 12:47:53;;;;;;;0.30;0.30;;;28.80;80.10;;;;;;5073045;28;20403;-61
2023/09/29 12:50:21;;;;;;;0.50;0.47;;;28.80;80.50;;;;;;5072862;28;20758;-62
2023/09/29 12:52:49;;;;;;;0.40;0.40;;;28.80;80.00;;;;;;5091018;28;20445;-61
2023/09/29 12:55:15;;;;;;;0.77;0.77;;;28.80;79.30;;;;;;5092546;28;20381;-61
2023/09/29 12:57:43;;;;;;;0.30;0.30;;;28.90;79.10;;;;;;5092768;28;20755;-61
2023/09/29 13:00:09;;;;;;;0.30;0.30;;;28.80;79.00;;;;;;5092863;28;20267;-61
2023/09/29 13:02:35;;;;;;;1.53;0.80;;;28.70;78.20;;;;;;5075390;28;20524;-61
2023/09/29 13:05:00;;;;;;;0.30;0.30;;;28.70;79.10;;;;;;5072497;28;20411;-60
2023/09/29 13:07:27;;;;;;;0.40;0.30;;;28.70;80.40;;;;;;5072882;28;20299;-61
2023/09/29 13:09:53;;;;;;;0.50;0.40;;;28.70;78.80;;;;;;5076453;28;20204;-60
2023/09/29 13:12:19;;;;;;;0.40;0.40;;;28.70;79.00;;;;;;5089315;28;20397;-61
2023/09/29 13:14:45;;;;;;;0.30;0.30;;;28.70;77.10;;;;;;5096212;28;20184;-61
2023/09/29 13:17:13;;;;;;;0.40;0.40;;;28.80;77.30;;;;;;5096516;28;20406;-61
2023/09/29 13:19:39;;;;;;;0.30;0.30;;;28.80;77.50;;;;;;5096543;28;20432;-61
2023/09/29 13:22:05;;;;;;;0.30;0.30;;;28.90;77.70;;;;;;5089749;28;20536;-61
2023/09/29 13:24:31;;;;;;;0.30;0.20;;;29.00;77.90;;;;;;5088813;28;20505;-60
2023/09/29 13:26:57;;;;;;;0.50;0.50;;;29.10;78.30;;;;;;5081742;28;20232;-61
2023/09/29 13:29:23;;;;;;;0.63;0.63;;;29.10;78.60;;;;;;5079289;28;20422;-60
2023/09/29 13:31:48;;;;;;;0.30;0.30;;;29.20;79.30;;;;;;5077015;28;20400;-61
2023/09/29 13:34:14;;;;;;;0.30;0.30;;;29.20;78.50;;;;;;5075650;28;20174;-61
2023/09/29 13:36:40;;;;;;;0.30;0.30;;;29.20;79.10;;;;;;5079093;28;20200;-61
2023/09/29 13:39:05;;;;;;;0.30;0.30;;;29.20;79.00;;;;;;5075642;28;20649;-61
2023/09/29 13:41:33;;;;;;;0.93;0.93;;;29.10;78.80;;;;;;5076452;28;20176;-60
2023/09/29 13:44:00;;;;;;;0.30;0.20;;;29.10;81.00;;;;;;5076224;28;20201;-60
2023/09/29 13:46:26;;;;;;;0.73;0.73;;;29.00;82.50;;;;;;5086491;28;20412;-61
2023/09/29 13:48:51;;;;;;;0.50;0.50;;;28.90;83.10;;;;;;5095946;28;20458;-61
2023/09/29 13:51:17;;;;;;;2.67;0.57;;;28.80;83.20;;;;;;5093881;28;20422;-61
2023/09/29 13:53:43;;;;;;;0.40;0.30;;;28.70;84.80;;;;;;5084948;28;20686;-62
2023/09/29 13:56:09;;;;;;;0.67;0.63;;;28.60;83.40;;;;;;5076968;28;20262;-61
2023/09/29 13:58:36;;;;;;;0.40;0.30;;;28.60;83.00;;;;;;5092542;28;20207;-61
2023/09/29 14:01:02;;;;;;;0.47;0.47;;;28.70;83.80;;;;;;5092222;28;20401;-61
2023/09/29 14:03:28;;;;;;;0.40;0.33;;;28.80;84.70;;;;;;5081320;28;20486;-61
2023/09/29 14:05:54;;;;;;;0.40;0.30;;;28.80;83.90;;;;;;5074764;28;20453;-61
2023/09/29 14:08:19;;;;;;;0.53;0.53;;;28.80;82.90;;;;;;5076213;28;20543;-64
2023/09/29 14:10:46;;;;;;;0.50;0.30;;;28.80;85.20;;;;;;5075460;28;20545;-68
2023/09/29 14:13:12;;;;;;;0.30;0.20;;;28.80;83.40;;;;;;5086362;28;20661;-72
2023/09/29 14:15:37;;;;;;;0.30;0.30;;;28.80;84.00;;;;;;5093913;28;20462;-65
2023/09/29 14:18:03;;;;;;;0.30;0.27;;;28.70;83.10;;;;;;5095002;28;20177;-62
2023/09/29 14:20:34;;;;;;;0.30;0.30;;;28.60;83.60;;;;;;5094494;28;20184;-63
2023/09/29 14:23:02;;;;;;;0.30;0.20;;;28.40;83.10;;;;;;5085909;28;20549;-63
2023/09/29 14:25:27;;;;;;;0.50;0.43;;;28.40;84.10;;;;;;5056492;28;20407;-66
2023/09/29 14:27:53;;;;;;;0.47;0.30;;;28.30;84.90;;;;;;5076099;28;20565;-64
2023/09/29 14:30:18;;;;;;;0.40;0.40;;;28.20;85.30;;;;;;5074940;28;20164;-67
2023/09/29 14:32:44;;;;;;;0.40;0.40;;;28.10;85.20;;;;;;5071747;28;20578;-68
2023/09/29 14:35:11;;;;;;;0.60;0.50;;;27.90;85.50;;;;;;5068504;28;20191;-66
2023/09/29 14:37:39;;;;;;;0.30;0.30;;;27.80;85.80;;;;;;5081087;28;20238;-65
2023/09/29 14:40:06;;;;;;;0.40;0.30;;;27.70;86.60;;;;;;5095058;28;20797;-65
2023/09/29 14:42:32;;;;;;;0.30;0.30;;;27.60;87.30;;;;;;5088301;28;20473;-65
2023/09/29 14:44:57;;;;;;;0.73;0.73;;;27.40;89.20;;;;;;5083829;28;20394;-66
2023/09/29 14:47:24;;;;;;;0.40;0.40;;;27.20;90.40;;;;;;5094008;28;20244;-66
2023/09/29 14:49:50;;;;;;;0.40;0.40;;;27.00;91.00;;;;;;5086457;28;20225;-76
2023/09/29 14:52:16;;;;;;;0.43;0.43;;;26.90;91.60;;;;;;5074355;28;20781;-65
2023/09/29 14:54:42;;;;;;;0.60;0.60;;;26.70;92.30;;;;;;5074189;28;20201;-66
2023/09/29 14:57:08;;;;;;;0.30;0.30;;;26.50;92.80;;;;;;5074257;28;20983;-66
2023/09/29 14:59:33;;;;;;;0.40;0.40;;;26.40;93.30;;;;;;5082356;28;20915;-66
2023/09/29 15:01:59;;;;;;;0.50;0.50;;;26.30;94.10;;;;;;5075167;28;20179;-66
2023/09/29 15:04:24;;;;;;;0.30;0.30;;;26.10;94.30;;;;;;5090111;28;20193;-67
2023/09/29 15:06:51;;;;;;;0.50;0.43;;;25.90;95.00;;;;;;5076008;28;20195;-66
2023/09/29 15:09:16;;;;;;;0.30;0.27;;;25.70;95.70;;;;;;5087393;28;20402;-65
2023/09/29 15:11:42;;;;;;;1.33;0.83;;;25.60;95.80;;;;;;5089594;28;20640;-69
2023/09/29 15:14:08;;;;;;;0.30;0.30;;;25.50;96.20;;;;;;5093535;28;20171;-68
2023/09/29 15:16:33;;;;;;;0.30;0.20;;;25.30;96.60;;;;;;5093641;28;20188;-68
2023/09/29 15:19:01;;;;;;;0.30;0.30;;;25.20;97.00;;;;;;5092869;28;20514;-67
2023/09/29 15:21:27;;;;;;;0.97;0.97;;;25.10;97.30;;;;;;5093829;28;20180;-67
2023/09/29 15:23:55;;;;;;;0.30;0.30;;;24.90;97.60;;;;;;5081320;28;20524;-68
2023/09/29 15:26:22;;;;;;;0.33;0.33;;;24.70;98.00;;;;;;5056073;28;20422;-66
2023/09/29 15:28:48;;;;;;;0.30;0.20;;;24.40;98.60;;;;;;5073930;28;20426;-66
2023/09/29 15:31:14;;;;;;;0.30;0.30;;;24.30;98.90;;;;;;5092907;28;20401;-68
2023/09/29 15:33:40;;;;;;;0.30;0.30;;;24.10;99.00;;;;;;5093102;28;20551;-67
2023/09/29 15:36:05;;;;;;;0.30;0.30;;;24.00;99.10;;;;;;5075316;28;20208;-63
2023/09/29 15:38:31;;;;;;;1.13;1.13;;;23.90;99.40;;;;;;5072990;28;20181;-62
2023/09/29 15:40:56;;;;;;;0.30;0.30;;;23.80;99.70;;;;;;5091132;28;20179;-64
2023/09/29 15:43:22;;;;;;;0.30;0.30;;;23.70;99.80;;;;;;5087902;28;20204;-62
2023/09/29 15:45:51;;;;;;;0.50;0.50;;;23.70;99.90;;;;;;5072526;28;20209;-62
2023/09/29 15:48:17;;;;;;;1.07;1.07;;;23.60;99.90;;;;;;5079495;28;20190;-65
2023/09/29 15:50:43;;;;;;;0.30;0.30;;;23.60;99.90;;;;;;5091280;28;20421;-61
2023/09/29 15:53:11;;;;;;;0.30;0.20;;;23.50;99.90;;;;;;5092164;28;20203;-61
2023/09/29 15:55:42;;;;;;;0.30;0.30;;;23.40;99.90;;;;;;5092896;28;20406;-62
2023/09/29 15:58:08;;;;;;;0.80;0.80;;;23.20;99.70;;;;;;5093043;28;20383;-63
2023/09/29 16:00:34;;;;;;;0.70;0.70;;;23.20;99.70;;;;;;5092735;28;20408;-67
2023/09/29 16:02:59;;;;;;;0.40;0.40;;;23.10;99.70;;;;;;5090747;28;20973;-66
2023/09/29 16:05:25;;;;;;;0.30;0.30;;;23.00;99.50;;;;;;5092643;28;20172;-68
2023/09/29 16:07:51;;;;;;;0.30;0.30;;;23.00;99.30;;;;;;5083665;28;20226;-63
2023/09/29 16:10:18;;;;;;;0.33;0.33;;;22.90;99.40;;;;;;5073469;28;20444;-65
2023/09/29 16:12:44;;;;;;;0.30;0.30;;;22.90;99.60;;;;;;5082271;28;20175;-60
2023/09/29 16:15:09;;;;;;;0.30;0.30;;;22.80;99.50;;;;;;5086393;28;20834;-63
2023/09/29 16:17:35;;;;;;;0.40;0.40;;;22.80;99.40;;;;;;5072666;28;20409;-63
2023/09/29 16:20:01;;;;;;;0.30;0.30;;;22.80;99.50;;;;;;5073114;28;20177;-65
2023/09/29 16:22:27;;;;;;;0.77;0.67;;;22.80;99.60;;;;;;5087575;28;20227;-65
2023/09/29 16:24:53;;;;;;;0.43;0.43;;;22.70;99.80;;;;;;5088915;28;20539;-65
2023/09/29 16:27:19;;;;;;;0.43;0.43;;;22.70;99.90;;;;;;5090200;28;20995;-69
2023/09/29 16:29:45;;;;;;;0.50;0.50;;;22.60;99.90;;;;;;5073940;28;20172;-71
2023/09/29 16:32:13;;;;;;;0.30;0.30;;;22.50;99.90;;;;;;5084439;28;20173;-76
2023/09/29 16:34:39;;;;;;;0.30;0.30;;;22.40;99.90;;;;;;5084572;28;20175;-68
2023/09/29 16:37:06;;;;;;;0.47;0.47;;;22.30;99.90;;;;;;5084912;28;20880;-67
2023/09/29 16:39:32;;;;;;;0.50;0.50;;;22.20;99.90;;;;;;5089609;28;20191;-67
2023/09/29 16:41:57;;;;;;;0.50;0.50;;;22.10;99.90;;;;;;5089266;28;20943;-67
2023/09/29 16:44:23;;;;;;;0.30;0.30;;;22.00;99.90;;;;;;5076423;28;20185;-67
2023/09/29 16:46:49;;;;;;;0.30;0.30;;;21.90;99.90;;;;;;5082057;28;20199;-66
2023/09/29 16:49:20;;;;;;;0.33;0.27;;;21.80;99.90;;;;;;5096335;28;20252;-68
2023/09/29 16:51:49;;;;;;;0.60;0.60;;;21.70;99.90;;;;;;5093796;28;20831;-64